createdAt,value
2019-03-23T00:01:03.007Z,6.67
2019-03-23T00:05:20.174Z,8.00
2019-03-23T00:09:36.982Z,6.57
2019-03-23T00:13:53.694Z,7.20
2019-03-23T00:18:10.754Z,6.73
2019-03-23T00:22:27.544Z,6.13
2019-03-23T00:26:44.103Z,8.80
2019-03-23T00:31:00.730Z,9.57
2019-03-23T00:35:17.333Z,9.10
2019-03-23T00:39:34.129Z,15.47
2019-03-23T00:43:50.770Z,15.67
2019-03-23T00:48:07.292Z,8.43
2019-03-23T00:52:23.804Z,8.90
2019-03-23T00:56:40.317Z,11.10
2019-03-23T01:00:56.929Z,10.73
2019-03-23T01:05:14.190Z,6.17
2019-03-23T01:09:30.697Z,5.23
2019-03-23T01:13:47.210Z,8.03
2019-03-23T01:18:03.714Z,6.40
2019-03-23T01:22:20.231Z,6.00
2019-03-23T01:26:36.770Z,5.53
2019-03-23T01:30:53.564Z,5.20
2019-03-23T01:35:10.487Z,5.80
2019-03-23T01:39:27.009Z,4.77
2019-03-23T01:43:43.512Z,6.20
2019-03-23T01:48:00.011Z,5.37
2019-03-23T01:52:16.779Z,6.70
2019-03-23T01:56:33.381Z,7.60
2019-03-23T02:00:49.983Z,4.20
2019-03-23T02:05:07.227Z,5.03
2019-03-23T02:09:23.730Z,4.33
2019-03-23T02:13:40.253Z,6.57
2019-03-23T02:17:56.758Z,6.40
2019-03-23T02:22:14.109Z,4.97
2019-03-23T02:26:30.641Z,6.50
2019-03-23T02:30:47.125Z,9.33
2019-03-23T02:35:06.557Z,7.23
2019-03-23T02:39:23.345Z,5.70
2019-03-23T02:43:39.959Z,7.17
2019-03-23T02:47:56.504Z,5.63
2019-03-23T02:52:13.014Z,4.80
2019-03-23T02:56:29.512Z,4.63
2019-03-23T03:00:46.008Z,4.43
2019-03-23T03:05:06.059Z,3.87
2019-03-23T03:09:22.633Z,4.83
2019-03-23T03:13:39.939Z,3.83
2019-03-23T03:17:56.919Z,4.40
2019-03-23T03:22:13.682Z,4.83
2019-03-23T03:26:31.111Z,10.93
2019-03-23T03:30:47.664Z,8.03
2019-03-23T03:35:05.082Z,4.57
2019-03-23T03:39:21.638Z,5.50
2019-03-23T03:43:38.165Z,8.90
2019-03-23T03:47:55.234Z,5.03
2019-03-23T03:52:11.779Z,3.70
2019-03-23T03:56:28.655Z,3.53
2019-03-23T04:00:45.614Z,3.47
2019-03-23T04:05:05.099Z,3.07
2019-03-23T04:09:21.936Z,3.27
2019-03-23T04:13:38.559Z,3.60
2019-03-23T04:17:55.086Z,5.03
2019-03-23T04:22:11.599Z,4.73
2019-03-23T04:26:28.402Z,5.03
2019-03-23T04:30:45.432Z,4.40
2019-03-23T04:35:04.309Z,7.37
2019-03-23T04:39:20.891Z,6.93
2019-03-23T04:43:37.458Z,6.87
2019-03-23T04:47:54.382Z,9.20
2019-03-23T04:52:10.914Z,6.33
2019-03-23T04:56:27.479Z,6.83
2019-03-23T05:00:44.316Z,5.40
2019-03-23T05:05:00.952Z,11.33
2019-03-23T05:09:17.431Z,8.97
2019-03-23T05:13:34.310Z,6.17
2019-03-23T05:17:51.068Z,4.87
2019-03-23T05:22:09.874Z,8.70
2019-03-23T05:26:26.381Z,11.20
2019-03-23T05:30:42.878Z,9.10
2019-03-23T05:34:59.621Z,8.97
2019-03-23T05:39:16.107Z,5.80
2019-03-23T05:43:33.082Z,4.37
2019-03-23T05:47:50.088Z,4.00
2019-03-23T05:52:07.148Z,4.17
2019-03-23T05:56:23.835Z,3.67
2019-03-23T06:00:40.538Z,3.37
2019-03-23T06:04:57.521Z,3.87
2019-03-23T06:09:14.459Z,4.77
2019-03-23T06:13:31.058Z,5.73
2019-03-23T06:17:47.961Z,6.17
2019-03-23T06:22:04.591Z,5.37
2019-03-23T06:26:21.095Z,4.80
2019-03-23T06:30:37.619Z,7.53
2019-03-23T06:34:54.556Z,6.83
2019-03-23T06:39:11.034Z,6.40
2019-03-23T06:43:27.667Z,7.27
2019-03-23T06:47:44.157Z,7.77
2019-03-23T06:52:00.718Z,9.13
2019-03-23T06:56:17.275Z,8.30
2019-03-23T07:00:35.980Z,10.07
2019-03-23T07:04:52.499Z,9.97
2019-03-23T07:09:16.038Z,10.23
2019-03-23T07:13:38.485Z,11.27
2019-03-23T07:18:02.988Z,9.07
2019-03-23T07:22:19.755Z,8.93
2019-03-23T07:26:36.330Z,11.27
2019-03-23T07:30:52.915Z,10.60
2019-03-23T07:35:09.914Z,10.30
2019-03-23T07:39:29.166Z,9.43
2019-03-23T07:43:44.863Z,9.63
2019-03-23T07:48:02.257Z,8.67
2019-03-23T07:52:18.706Z,10.10
2019-03-23T07:56:35.252Z,8.07
2019-03-23T08:00:51.850Z,9.20
2019-03-23T08:05:08.896Z,7.20
2019-03-23T08:09:25.726Z,6.40
2019-03-23T08:13:42.382Z,7.23
2019-03-23T08:17:59.175Z,7.10
2019-03-23T08:22:15.729Z,7.00
2019-03-23T08:26:32.815Z,7.80
2019-03-23T08:30:49.357Z,8.20
2019-03-23T08:35:06.015Z,8.20
2019-03-23T08:39:22.577Z,8.27
2019-03-23T08:43:39.085Z,9.70
2019-03-23T08:47:55.830Z,9.50
2019-03-23T08:52:12.307Z,8.13
2019-03-23T08:56:28.822Z,8.13
2019-03-23T09:00:45.720Z,7.13
2019-03-23T09:05:04.456Z,7.07
2019-03-23T09:09:20.988Z,7.93
2019-03-23T09:13:40.749Z,6.70
2019-03-23T09:17:56.341Z,5.63
2019-03-23T09:22:12.929Z,6.87
2019-03-23T09:26:29.491Z,7.67
2019-03-23T09:30:46.459Z,8.43
2019-03-23T09:35:04.302Z,7.90
2019-03-23T09:39:20.922Z,9.10
2019-03-23T09:43:37.768Z,8.33
2019-03-23T09:47:54.304Z,8.50
2019-03-23T09:52:10.778Z,6.70
2019-03-23T09:56:27.312Z,6.50
2019-03-23T10:00:43.836Z,6.70
2019-03-23T10:05:00.368Z,7.50
2019-03-23T10:09:16.895Z,6.37
2019-03-23T10:13:33.388Z,8.37
2019-03-23T10:17:49.933Z,7.97
2019-03-23T10:22:06.507Z,7.77
2019-03-23T10:26:23.043Z,6.63
2019-03-23T10:30:39.489Z,7.13
2019-03-23T10:34:56.342Z,6.80
2019-03-23T10:39:14.802Z,8.63
2019-03-23T10:43:31.355Z,7.47
2019-03-23T10:47:48.248Z,9.50
2019-03-23T10:52:05.192Z,8.40
2019-03-23T10:56:21.709Z,7.90
2019-03-23T11:00:38.222Z,9.80
2019-03-23T11:04:54.727Z,9.00
2019-03-23T11:09:11.252Z,7.80
2019-03-23T11:13:27.769Z,8.33
2019-03-23T11:17:44.660Z,7.83
2019-03-23T11:22:01.219Z,8.27
2019-03-23T11:26:17.731Z,8.33
2019-03-23T11:30:34.179Z,8.77
2019-03-23T11:34:50.776Z,7.50
2019-03-23T11:39:07.269Z,8.40
2019-03-23T11:43:23.811Z,8.87
2019-03-23T11:47:40.419Z,10.10
2019-03-23T11:51:58.093Z,6.20
2019-03-23T11:56:15.139Z,7.90
2019-03-23T12:00:40.746Z,7.93
2019-03-23T12:04:59.589Z,7.37
2019-03-23T12:09:16.177Z,6.53
2019-03-23T12:13:32.727Z,8.00
2019-03-23T12:17:49.236Z,7.73
2019-03-23T12:22:05.825Z,7.80
2019-03-23T12:26:24.604Z,7.87
2019-03-23T12:30:41.046Z,7.37
2019-03-23T12:34:57.548Z,6.90
2019-03-23T12:39:16.239Z,6.47
2019-03-23T12:43:32.841Z,7.53
2019-03-23T12:47:49.366Z,7.50
2019-03-23T12:52:07.010Z,6.30
2019-03-23T12:56:23.515Z,7.58
2019-03-23T13:00:40.053Z,4.28
2019-03-23T13:04:56.530Z,5.22
2019-03-23T13:09:13.329Z,7.42
2019-03-23T13:13:29.961Z,7.53
2019-03-23T13:17:46.837Z,8.33
2019-03-23T13:22:03.318Z,7.62
2019-03-23T13:26:19.881Z,7.40
2019-03-23T13:30:36.891Z,8.33
2019-03-23T13:34:53.622Z,6.42
2019-03-23T13:39:10.201Z,8.03
2019-03-23T13:43:26.760Z,8.75
2019-03-23T13:47:43.524Z,9.75
2019-03-23T13:52:01.777Z,11.50
2019-03-23T13:56:18.518Z,10.50
2019-03-23T14:00:35.335Z,11.83
2019-03-23T14:04:52.142Z,11.80
2019-03-23T14:09:08.980Z,12.23
2019-03-23T14:13:25.497Z,11.80
2019-03-23T14:17:42.299Z,12.73
2019-03-23T14:21:58.820Z,11.57
2019-03-23T14:26:15.375Z,11.53
2019-03-23T14:30:32.311Z,11.20
2019-03-23T14:34:49.211Z,14.80
2019-03-23T14:39:06.499Z,12.73
2019-03-23T14:43:23.068Z,14.83
2019-03-23T14:47:39.568Z,14.63
2019-03-23T14:51:56.074Z,15.07
2019-03-23T14:56:12.602Z,16.03
2019-03-23T15:00:31.685Z,17.93
2019-03-23T15:04:48.474Z,18.20
2019-03-23T15:09:05.574Z,16.13
2019-03-23T15:13:22.045Z,13.17
2019-03-23T15:17:48.222Z,14.23
2019-03-23T15:21:57.016Z,13.97
2019-03-23T15:26:13.553Z,15.67
2019-03-23T15:30:30.464Z,24.30
2019-03-23T15:34:47.773Z,29.43
2019-03-23T15:39:07.016Z,33.63
2019-03-23T15:43:23.604Z,33.73
2019-03-23T15:47:40.427Z,40.30
2019-03-23T15:51:56.942Z,40.93
2019-03-23T15:56:13.480Z,49.43
2019-03-23T16:00:30.206Z,50.70
2019-03-23T16:04:46.705Z,52.13
2019-03-23T16:09:08.832Z,55.30
2019-03-23T16:13:25.725Z,52.07
2019-03-23T16:17:42.284Z,54.30
2019-03-23T16:21:58.784Z,50.37
2019-03-23T16:26:15.296Z,50.40
2019-03-23T16:30:32.477Z,49.43
2019-03-23T16:34:48.971Z,47.97
2019-03-23T16:39:05.728Z,48.63
2019-03-23T16:43:22.373Z,44.63
2019-03-23T16:47:38.921Z,46.83
2019-03-23T16:51:55.444Z,41.60
2019-03-23T16:56:11.950Z,41.13
2019-03-23T17:00:34.123Z,39.23
2019-03-23T17:04:50.614Z,36.40
2019-03-23T17:09:07.130Z,35.27
2019-03-23T17:13:24.808Z,36.77
2019-03-23T17:17:41.705Z,42.60
2019-03-23T17:21:58.237Z,39.63
2019-03-23T17:26:14.741Z,39.73
2019-03-23T17:30:31.353Z,39.17
2019-03-23T17:34:48.094Z,38.83
2019-03-23T17:39:05.308Z,42.50
2019-03-23T17:43:21.909Z,36.50
2019-03-23T17:47:47.800Z,42.33
2019-03-23T17:52:07.545Z,40.87
2019-03-23T17:56:26.315Z,40.93
2019-03-23T18:00:44.820Z,39.43
2019-03-23T18:05:06.575Z,34.03
2019-03-23T18:09:23.227Z,44.10
2019-03-23T18:13:45.578Z,34.77
2019-03-23T18:18:02.431Z,37.47
2019-03-23T18:22:18.919Z,43.33
2019-03-23T18:26:35.451Z,45.90
2019-03-23T18:30:52.401Z,43.17
2019-03-23T18:35:09.087Z,43.07
2019-03-23T18:39:25.728Z,40.27
2019-03-23T18:43:45.219Z,40.37
2019-03-23T18:48:02.131Z,34.53
2019-03-23T18:52:20.695Z,34.63
2019-03-23T18:56:37.248Z,30.83
2019-03-23T19:00:53.792Z,32.30
2019-03-23T19:05:10.665Z,37.47
2019-03-23T19:09:27.242Z,31.73
2019-03-23T19:13:43.774Z,37.80
2019-03-23T19:18:00.698Z,36.93
2019-03-23T19:22:17.352Z,48.57
2019-03-23T19:26:34.131Z,48.07
2019-03-23T19:30:50.781Z,46.67
2019-03-23T19:35:07.751Z,39.80
2019-03-23T19:39:25.279Z,43.77
2019-03-23T19:43:48.634Z,41.57
2019-03-23T19:48:00.807Z,42.60
2019-03-23T19:52:17.957Z,36.37
2019-03-23T19:56:34.623Z,34.03
2019-03-23T20:00:51.501Z,37.33
2019-03-23T20:05:08.500Z,31.47
2019-03-23T20:09:26.307Z,20.97
2019-03-23T20:13:42.978Z,18.57
2019-03-23T20:17:59.738Z,15.17
2019-03-23T20:22:16.593Z,26.67
2019-03-23T20:26:33.510Z,21.63
2019-03-23T20:30:50.530Z,25.17
2019-03-23T20:35:07.836Z,26.73
2019-03-23T20:39:24.657Z,21.00
2019-03-23T20:43:41.263Z,16.63
2019-03-23T20:47:58.448Z,19.63
2019-03-23T20:52:15.328Z,29.13
2019-03-23T20:56:32.020Z,25.43
2019-03-23T21:00:51.184Z,24.07
2019-03-23T21:05:08.164Z,23.77
2019-03-23T21:09:24.624Z,18.83
2019-03-23T21:13:41.450Z,30.57
2019-03-23T21:17:58.354Z,23.73
2019-03-23T21:22:14.887Z,24.87
2019-03-23T21:26:31.820Z,25.20
2019-03-23T21:30:48.477Z,19.37
2019-03-23T21:35:05.662Z,21.50
2019-03-23T21:39:22.296Z,19.93
2019-03-23T21:43:39.218Z,24.40
2019-03-23T21:47:55.762Z,25.30
2019-03-23T21:52:12.380Z,23.03
2019-03-23T21:56:28.889Z,24.73
2019-03-23T22:00:45.418Z,24.87
2019-03-23T22:05:03.112Z,30.70
2019-03-23T22:09:19.645Z,36.53
2019-03-23T22:13:36.186Z,25.93
2019-03-23T22:17:52.693Z,34.10
2019-03-23T22:22:09.214Z,36.83
2019-03-23T22:26:25.800Z,32.40
2019-03-23T22:30:42.501Z,27.67
2019-03-23T22:34:59.153Z,31.90
2019-03-23T22:39:15.834Z,29.23
2019-03-23T22:43:32.403Z,31.87
2019-03-23T22:47:49.091Z,29.50
2019-03-23T22:52:05.642Z,30.43
2019-03-23T22:56:22.295Z,31.57
2019-03-23T23:00:40.780Z,28.80
2019-03-23T23:04:57.435Z,34.07
2019-03-23T23:09:13.933Z,34.40
2019-03-23T23:13:30.567Z,22.40
2019-03-23T23:17:47.097Z,27.87
2019-03-23T23:22:03.676Z,32.47
2019-03-23T23:26:20.601Z,31.27
2019-03-23T23:30:37.431Z,32.00
2019-03-23T23:34:53.937Z,29.80
2019-03-23T23:39:10.468Z,29.63
2019-03-23T23:43:28.109Z,30.37
2019-03-23T23:47:45.135Z,26.07
2019-03-23T23:52:01.642Z,39.00
2019-03-23T23:56:18.612Z,40.77
